Time;durP1;ratioP1;P1;durP2;ratioP2;P2;SDS_P1;SDS_P2;PMS_P1;PMS_P2;Temp;Humidity;BMP_temperature;BMP_pressure;BME280_temperature;BME280_humidity;BME280_pressure;Samples;Min_cycle;Max_cycle;Signal;HPM_P1;HPM_P2
2023/01/21 00:00:18;;;;;;;40.97;22.33;;;-1.20;99.90;;;;;;5018259;28;20469;-79
2023/01/21 00:02:44;;;;;;;40.65;22.40;;;-1.10;99.90;;;;;;4978843;28;20161;-78
2023/01/21 00:05:10;;;;;;;39.42;22.23;;;-1.20;99.90;;;;;;4994252;28;20291;-79
2023/01/21 00:07:35;;;;;;;41.75;21.48;;;-1.20;99.90;;;;;;5005027;28;20050;-78
2023/01/21 00:10:01;;;;;;;42.80;21.38;;;-1.20;99.90;;;;;;5006769;28;20408;-78
2023/01/21 00:12:26;;;;;;;34.80;19.15;;;-1.20;99.90;;;;;;5007464;28;20377;-78
2023/01/21 00:14:52;;;;;;;39.15;22.33;;;-1.20;99.90;;;;;;5010055;28;20543;-77
2023/01/21 00:17:18;;;;;;;41.45;22.45;;;-1.20;99.90;;;;;;5004732;28;20033;-74
2023/01/21 00:19:43;;;;;;;40.47;22.65;;;-1.20;99.90;;;;;;5008497;28;20741;-77
2023/01/21 00:22:09;;;;;;;37.95;19.98;;;-1.20;99.90;;;;;;5005690;28;20049;-78
2023/01/21 00:24:34;;;;;;;40.97;22.27;;;-1.30;99.90;;;;;;5002013;28;20057;-77
2023/01/21 00:27:00;;;;;;;34.50;16.85;;;-1.30;99.90;;;;;;4999042;28;20076;-77
2023/01/21 00:29:26;;;;;;;38.35;18.88;;;-1.30;99.90;;;;;;5001237;28;21056;-78
2023/01/21 00:31:51;;;;;;;44.08;22.42;;;-1.20;99.90;;;;;;4992221;28;20050;-81
2023/01/21 00:34:20;;;;;;;39.05;20.00;;;-1.30;99.90;;;;;;5015256;28;20038;-80
2023/01/21 00:36:45;;;;;;;35.55;19.95;;;-1.30;99.90;;;;;;4990433;28;20745;-80
2023/01/21 00:39:11;;;;;;;41.53;22.45;;;-1.30;99.90;;;;;;5005750;28;20481;-80
2023/01/21 00:41:37;;;;;;;40.72;21.58;;;;;;;;;;4984423;28;20042;-80
2023/01/21 00:44:04;;;;;;;24.95;12.82;;;-1.30;99.90;;;;;;5014878;28;20050;-80
2023/01/21 00:46:29;;;;;;;44.13;21.67;;;-1.30;99.90;;;;;;4988333;28;20473;-80
2023/01/21 00:48:55;;;;;;;44.80;24.25;;;-1.40;99.90;;;;;;5004717;28;20052;-81
2023/01/21 00:51:21;;;;;;;40.38;21.17;;;-1.30;99.90;;;;;;5009864;28;20114;-80
2023/01/21 00:53:47;;;;;;;39.17;21.23;;;-1.40;99.90;;;;;;5009794;28;20400;-81
2023/01/21 00:56:13;;;;;;;40.22;21.67;;;-1.30;99.90;;;;;;4986881;28;20042;-80
2023/01/21 00:58:39;;;;;;;41.85;22.15;;;-1.40;99.90;;;;;;5007921;28;20046;-80
2023/01/21 01:01:17;;;;;;;36.17;19.52;;;-1.40;99.90;;;;;;4989487;28;20104;-80
2023/01/21 01:03:44;;;;;;;39.15;20.98;;;-1.40;99.90;;;;;;5009999;28;20049;-80
2023/01/21 01:06:19;;;;;;;45.30;21.20;;;-1.40;99.90;;;;;;4995707;28;20380;-80
2023/01/21 01:08:45;;;;;;;47.65;23.60;;;-1.40;99.90;;;;;;5011783;28;20069;-80
2023/01/21 01:11:12;;;;;;;30.50;16.23;;;-1.40;99.90;;;;;;5009545;28;20072;-80
2023/01/21 01:13:38;;;;;;;41.55;21.30;;;-1.40;99.90;;;;;;4996184;28;20050;-80
2023/01/21 01:16:04;;;;;;;37.45;17.23;;;-1.40;99.90;;;;;;5012021;28;20053;-80
2023/01/21 01:18:32;;;;;;;44.60;23.27;;;-1.40;99.90;;;;;;5012963;28;20472;-80
2023/01/21 01:20:58;;;;;;;40.58;20.48;;;-1.40;99.90;;;;;;5021642;28;20038;-80
2023/01/21 01:23:25;;;;;;;43.63;23.20;;;-1.30;99.90;;;;;;5020296;28;20068;-81
2023/01/21 01:25:55;;;;;;;46.47;23.20;;;-1.30;99.90;;;;;;5009800;28;20073;-80
2023/01/21 01:28:21;;;;;;;40.03;20.73;;;-1.30;99.90;;;;;;4996978;28;20095;-80
2023/01/21 01:30:47;;;;;;;42.55;22.67;;;-1.30;99.90;;;;;;5003734;28;20088;-80
2023/01/21 01:33:12;;;;;;;48.63;25.75;;;-1.20;99.90;;;;;;5028111;28;20025;-80
2023/01/21 01:35:38;;;;;;;49.60;25.70;;;-1.20;99.90;;;;;;5022824;28;20049;-81
2023/01/21 01:38:06;;;;;;;32.80;18.38;;;-1.20;99.90;;;;;;5020591;28;20048;-81
2023/01/21 01:40:33;;;;;;;52.70;26.50;;;-1.20;99.90;;;;;;5016426;28;20468;-80
2023/01/21 01:42:58;;;;;;;56.30;27.73;;;-1.10;99.90;;;;;;5014552;28;20393;-81
2023/01/21 01:45:24;;;;;;;36.03;18.30;;;-1.10;99.90;;;;;;5013479;28;20038;-80
2023/01/21 01:47:58;;;;;;;42.30;19.83;;;-1.10;99.90;;;;;;5010017;28;20152;-81
2023/01/21 01:50:36;;;;;;;53.53;26.20;;;-1.00;99.90;;;;;;5000284;28;20038;-80
2023/01/21 01:53:02;;;;;;;62.95;30.35;;;-1.00;99.90;;;;;;5004693;28;20054;-80
2023/01/21 01:55:31;;;;;;;53.65;26.08;;;-1.00;99.90;;;;;;5004445;28;20068;-80
2023/01/21 01:57:57;;;;;;;55.75;24.05;;;-1.00;99.90;;;;;;4997920;28;20075;-81
2023/01/21 02:00:24;;;;;;;30.08;17.02;;;-1.00;99.90;;;;;;5004006;28;20045;-81
2023/01/21 02:05:37;;;;;;;59.22;26.52;;;-1.00;99.90;;;;;;4997808;28;20140;-82
2023/01/21 02:08:03;;;;;;;50.60;24.08;;;-1.00;99.90;;;;;;5010081;28;20057;-81
2023/01/21 02:10:30;;;;;;;62.70;29.17;;;-1.00;99.90;;;;;;5009355;28;20129;-81
2023/01/21 02:12:56;;;;;;;65.15;30.02;;;-1.00;99.90;;;;;;5009984;28;20060;-81
2023/01/21 02:15:34;;;;;;;61.47;28.52;;;-0.90;99.90;;;;;;5012968;28;20030;-81
2023/01/21 02:18:17;;;;;;;63.17;29.10;;;-0.90;99.90;;;;;;5008857;28;20038;-81
2023/01/21 02:21:03;;;;;;;64.63;29.73;;;-0.90;99.90;;;;;;5006790;28;20446;-81
2023/01/21 02:24:05;;;;;;;50.95;25.75;;;-0.90;99.90;;;;;;5007746;28;21331;-80
2023/01/21 02:26:50;;;;;;;47.88;22.90;;;;;;;;;;4973101;28;20052;-80
2023/01/21 02:29:48;;;;;;;63.50;31.38;;;-0.90;99.90;;;;;;5008638;28;20404;-80
2023/01/21 02:32:34;;;;;;;56.28;26.08;;;-0.90;99.90;;;;;;5006547;28;20073;-80
2023/01/21 02:35:13;;;;;;;61.60;27.98;;;-0.90;99.90;;;;;;5005449;28;20596;-81
2023/01/21 02:37:58;;;;;;;41.50;19.70;;;-0.90;99.90;;;;;;4999141;28;20045;-80
2023/01/21 02:40:42;;;;;;;49.60;25.35;;;-0.90;99.90;;;;;;5014073;28;20069;-80
2023/01/21 02:43:36;;;;;;;58.80;26.58;;;-0.90;99.90;;;;;;5010358;28;20060;-81
2023/01/21 02:46:11;;;;;;;50.53;21.15;;;-0.90;99.90;;;;;;4994022;28;20042;-81
2023/01/21 02:48:53;;;;;;;59.60;26.30;;;-0.90;99.90;;;;;;5005362;28;20081;-80
2023/01/21 02:51:19;;;;;;;61.60;27.02;;;-0.90;99.90;;;;;;4989542;28;20098;-80
2023/01/21 02:53:44;;;;;;;59.80;27.98;;;-0.80;99.90;;;;;;5023699;28;20053;-80
2023/01/21 02:56:14;;;;;;;62.28;28.77;;;-0.80;99.90;;;;;;5019525;28;20081;-80
2023/01/21 02:59:04;;;;;;;64.38;30.10;;;-0.80;99.90;;;;;;5018063;28;20068;-81
2023/01/21 03:01:33;;;;;;;66.88;30.17;;;-0.80;99.90;;;;;;4977721;28;20056;-80
2023/01/21 03:04:13;;;;;;;69.78;29.60;;;-0.80;99.90;;;;;;5004049;28;20050;-80
2023/01/21 03:07:06;;;;;;;57.75;26.95;;;-0.80;99.90;;;;;;4986731;28;20092;-80
2023/01/21 03:09:33;;;;;;;49.03;23.58;;;-0.80;99.90;;;;;;5005938;28;20061;-80
2023/01/21 03:12:08;;;;;;;64.45;31.58;;;-0.70;99.90;;;;;;4985565;28;20073;-78
2023/01/21 03:18:01;;;;;;;61.97;29.23;;;-0.70;99.90;;;;;;5013801;28;20073;-79
2023/01/21 03:20:32;;;;;;;58.85;26.70;;;-0.80;99.90;;;;;;4924531;29;20047;-79
2023/01/21 03:23:16;;;;;;;59.00;26.15;;;-0.70;99.90;;;;;;4920407;29;20128;-79
2023/01/21 03:25:43;;;;;;;67.43;29.90;;;-0.70;99.90;;;;;;4926547;29;20058;-80
2023/01/21 03:28:12;;;;;;;62.95;28.38;;;-0.70;99.90;;;;;;4944196;29;20047;-79
2023/01/21 03:30:46;;;;;;;64.85;27.25;;;-0.60;99.90;;;;;;4943919;29;20103;-79
2023/01/21 03:33:15;;;;;;;57.85;25.15;;;-0.70;99.90;;;;;;4937377;29;20048;-78
2023/01/21 03:35:44;;;;;;;70.68;30.55;;;-0.70;99.90;;;;;;4931054;29;20110;-80
2023/01/21 03:38:23;;;;;;;71.20;30.58;;;-0.70;99.90;;;;;;4932527;29;20095;-79
2023/01/21 03:41:00;;;;;;;75.38;31.40;;;-0.70;99.90;;;;;;4931064;29;20058;-79
2023/01/21 03:43:26;;;;;;;77.38;32.10;;;-0.60;99.90;;;;;;4927211;29;20078;-79
2023/01/21 03:46:22;;;;;;;58.63;25.83;;;-0.70;99.90;;;;;;4929180;29;20055;-79
2023/01/21 03:48:56;;;;;;;63.83;28.40;;;-0.70;99.90;;;;;;4912940;29;20051;-78
2023/01/21 03:51:36;;;;;;;81.75;33.10;;;-0.60;99.90;;;;;;4922023;29;20066;-79
2023/01/21 03:54:02;;;;;;;62.95;24.23;;;-0.60;99.90;;;;;;4927119;29;20047;-80
2023/01/21 03:56:28;;;;;;;70.18;29.83;;;-0.60;99.90;;;;;;4957330;28;20515;-78
2023/01/21 03:58:53;;;;;;;70.85;29.77;;;-0.60;99.90;;;;;;5005834;28;20048;-79
2023/01/21 04:01:19;;;;;;;77.25;32.35;;;-0.60;99.90;;;;;;5004029;28;20068;-78
2023/01/21 04:03:45;;;;;;;69.18;29.45;;;-0.60;99.90;;;;;;5008196;28;20052;-78
2023/01/21 04:06:16;;;;;;;73.93;30.95;;;-0.50;99.90;;;;;;4995818;28;20207;-79
2023/01/21 04:08:42;;;;;;;64.70;28.90;;;-0.50;99.90;;;;;;5008285;28;20065;-79
2023/01/21 04:11:07;;;;;;;70.88;29.35;;;-0.60;99.90;;;;;;5009618;28;20042;-78
2023/01/21 04:13:33;;;;;;;66.72;27.65;;;-0.60;99.90;;;;;;5003325;28;20065;-79
2023/01/21 04:15:59;;;;;;;66.72;30.00;;;-0.50;99.90;;;;;;4985539;28;20602;-79
2023/01/21 04:18:24;;;;;;;70.38;30.80;;;-0.50;99.90;;;;;;5004207;28;20157;-79
2023/01/21 04:20:50;;;;;;;71.43;31.05;;;-0.50;99.90;;;;;;4999941;28;20061;-79
2023/01/21 04:23:15;;;;;;;75.03;30.48;;;-0.50;99.90;;;;;;5001900;28;20057;-79
2023/01/21 04:25:41;;;;;;;76.57;31.48;;;-0.50;99.90;;;;;;5001330;28;20041;-79
2023/01/21 04:28:07;;;;;;;74.22;31.48;;;-0.50;99.90;;;;;;5003826;28;20054;-79
2023/01/21 04:30:32;;;;;;;76.18;31.58;;;-0.50;99.90;;;;;;5013850;28;20049;-80
2023/01/21 04:32:58;;;;;;;73.47;31.40;;;-0.40;99.90;;;;;;5016895;28;20038;-79
2023/01/21 04:35:24;;;;;;;73.75;30.25;;;-0.40;99.90;;;;;;5016572;28;20038;-79
2023/01/21 04:37:49;;;;;;;68.22;29.90;;;-0.40;99.90;;;;;;5011732;28;20046;-80
2023/01/21 04:40:15;;;;;;;66.50;28.83;;;-0.40;99.90;;;;;;5010092;28;20514;-79
2023/01/21 04:42:41;;;;;;;79.20;30.80;;;-0.30;99.90;;;;;;5011469;28;20061;-79
2023/01/21 04:45:07;;;;;;;59.60;27.17;;;-0.30;99.90;;;;;;5007165;28;20092;-80
2023/01/21 04:47:33;;;;;;;69.03;30.35;;;-0.30;99.90;;;;;;5007766;28;20057;-79
2023/01/21 04:49:59;;;;;;;62.75;28.23;;;-0.20;99.90;;;;;;5004988;28;20038;-79
2023/01/21 04:52:24;;;;;;;72.80;29.23;;;-0.30;99.90;;;;;;4989278;28;20046;-79
2023/01/21 04:54:50;;;;;;;71.05;30.13;;;-0.30;99.90;;;;;;5007609;28;20084;-79
2023/01/21 04:57:15;;;;;;;71.55;29.15;;;-0.30;99.90;;;;;;4990599;28;20065;-79
2023/01/21 04:59:41;;;;;;;65.80;28.20;;;-0.20;99.90;;;;;;5007316;28;20046;-79
2023/01/21 05:02:07;;;;;;;68.18;29.92;;;-0.30;99.90;;;;;;5006786;28;20050;-79
2023/01/21 05:04:32;;;;;;;64.15;28.45;;;-0.20;99.90;;;;;;4993634;28;20050;-80
2023/01/21 05:06:58;;;;;;;65.30;27.70;;;-0.20;99.90;;;;;;5013321;28;20058;-80
2023/01/21 05:09:24;;;;;;;64.40;28.95;;;-0.20;99.90;;;;;;4991385;28;20484;-78
2023/01/21 05:11:50;;;;;;;58.05;27.20;;;-0.20;99.90;;;;;;5006219;28;20488;-78
2023/01/21 05:14:15;;;;;;;64.88;27.83;;;-0.20;99.90;;;;;;4985797;28;20049;-77
2023/01/21 05:16:41;;;;;;;60.40;28.20;;;-0.20;99.90;;;;;;5007080;28;20496;-77
2023/01/21 05:19:06;;;;;;;62.80;28.55;;;-0.10;99.90;;;;;;5004994;28;20061;-77
2023/01/21 05:21:32;;;;;;;60.92;27.77;;;-0.20;99.90;;;;;;5004851;28;20049;-77
2023/01/21 05:23:58;;;;;;;57.05;26.83;;;-0.10;99.90;;;;;;5004890;28;20487;-77
2023/01/21 05:26:23;;;;;;;57.47;26.45;;;-0.10;99.90;;;;;;5007227;28;20115;-78
2023/01/21 05:28:49;;;;;;;63.80;26.90;;;-0.10;99.90;;;;;;5006884;28;20540;-76
2023/01/21 05:31:14;;;;;;;55.78;26.83;;;-0.10;99.90;;;;;;5004872;28;20058;-78
2023/01/21 05:33:42;;;;;;;55.63;26.30;;;-0.10;99.90;;;;;;5004050;28;20038;-77
2023/01/21 05:36:09;;;;;;;62.40;28.13;;;-0.10;99.90;;;;;;4969604;28;20046;-78
2023/01/21 05:38:34;;;;;;;58.85;26.23;;;-0.10;99.90;;;;;;5003266;28;20040;-77
2023/01/21 05:41:02;;;;;;;51.63;24.63;;;0.00;99.90;;;;;;5003519;28;20038;-78
2023/01/21 05:43:28;;;;;;;50.60;25.80;;;0.00;99.90;;;;;;4984877;28;20156;-78
2023/01/21 05:45:54;;;;;;;54.08;24.20;;;0.00;99.90;;;;;;4985219;28;20388;-77
2023/01/21 05:48:20;;;;;;;52.67;24.63;;;0.00;99.90;;;;;;5004896;28;20038;-78
2023/01/21 05:50:46;;;;;;;55.97;26.40;;;0.00;99.90;;;;;;4981113;28;20101;-77
2023/01/21 05:53:12;;;;;;;52.75;25.02;;;0.00;99.90;;;;;;4999766;28;20064;-77
2023/01/21 05:55:38;;;;;;;48.67;23.90;;;0.00;99.90;;;;;;5000356;28;20117;-78
2023/01/21 05:58:04;;;;;;;48.10;24.27;;;0.00;99.90;;;;;;5001823;28;20096;-77
2023/01/21 06:00:30;;;;;;;52.50;25.30;;;0.00;99.90;;;;;;5001704;28;20131;-77
2023/01/21 06:02:55;;;;;;;54.10;25.00;;;0.10;99.90;;;;;;4996472;28;20187;-77
2023/01/21 06:05:21;;;;;;;50.38;26.13;;;0.00;99.90;;;;;;4987607;28;20172;-78
2023/01/21 06:07:47;;;;;;;53.78;25.40;;;0.10;99.90;;;;;;5003050;28;20061;-77
2023/01/21 06:10:12;;;;;;;45.90;24.38;;;0.20;99.90;;;;;;5005341;28;20054;-79
2023/01/21 06:12:38;;;;;;;48.58;23.90;;;0.10;99.90;;;;;;5013683;28;20117;-79
2023/01/21 06:15:04;;;;;;;49.45;24.00;;;0.10;99.90;;;;;;5010859;28;20034;-79
2023/01/21 06:17:30;;;;;;;50.25;24.00;;;0.10;99.90;;;;;;4990502;28;20089;-79
2023/01/21 06:19:55;;;;;;;48.03;24.13;;;0.10;99.90;;;;;;4989264;28;20088;-79
2023/01/21 06:22:21;;;;;;;50.03;24.60;;;0.20;99.90;;;;;;5018597;28;20062;-79
2023/01/21 06:24:46;;;;;;;45.60;23.33;;;0.20;99.90;;;;;;4997241;28;20061;-78
2023/01/21 06:27:12;;;;;;;47.25;24.50;;;0.20;99.90;;;;;;4995524;28;20433;-78
2023/01/21 06:29:37;;;;;;;48.67;24.05;;;0.20;99.90;;;;;;5013849;28;20034;-78
2023/01/21 06:32:03;;;;;;;46.05;23.33;;;0.20;99.90;;;;;;5014913;28;20111;-78
2023/01/21 06:34:29;;;;;;;46.63;23.80;;;0.20;99.90;;;;;;5016279;28;20068;-78
2023/01/21 06:36:54;;;;;;;51.17;24.23;;;0.20;99.90;;;;;;5017426;28;20072;-78
2023/01/21 06:39:20;;;;;;;51.28;24.88;;;0.20;99.90;;;;;;5014289;28;20492;-78
2023/01/21 06:41:46;;;;;;;52.58;24.73;;;0.30;99.90;;;;;;5008420;28;20038;-79
2023/01/21 06:44:11;;;;;;;44.72;24.35;;;0.20;99.90;;;;;;5004652;28;20042;-78
2023/01/21 06:46:37;;;;;;;51.08;25.70;;;0.30;99.90;;;;;;5003083;28;20041;-78
2023/01/21 06:49:02;;;;;;;46.85;23.58;;;-0.30;99.90;;;;;;5003259;28;20469;-78
2023/01/21 06:51:28;;;;;;;50.55;24.48;;;0.30;99.90;;;;;;5005908;28;20129;-77
2023/01/21 06:53:54;;;;;;;51.25;25.15;;;0.30;99.90;;;;;;5006276;28;20030;-77
2023/01/21 06:56:21;;;;;;;44.92;23.02;;;0.40;99.90;;;;;;5009419;28;20053;-79
2023/01/21 06:58:47;;;;;;;46.35;24.13;;;0.30;99.90;;;;;;4997305;28;20769;-78
2023/01/21 07:01:12;;;;;;;46.05;23.50;;;0.30;99.90;;;;;;5003701;28;20157;-78
2023/01/21 07:03:38;;;;;;;45.72;24.77;;;0.30;99.90;;;;;;5008473;28;20486;-78
2023/01/21 07:06:04;;;;;;;43.70;23.65;;;0.40;99.90;;;;;;5007901;28;20040;-78
2023/01/21 07:08:30;;;;;;;42.47;24.38;;;0.40;99.90;;;;;;4987662;28;20073;-78
2023/01/21 07:10:55;;;;;;;41.47;22.45;;;0.40;99.90;;;;;;5005269;28;20111;-78
2023/01/21 07:13:21;;;;;;;43.10;22.80;;;0.40;99.90;;;;;;5004501;28;20422;-78
2023/01/21 07:15:47;;;;;;;42.20;23.05;;;0.40;99.90;;;;;;5009011;28;20057;-78
2023/01/21 07:18:13;;;;;;;47.90;22.88;;;0.40;99.90;;;;;;4996315;28;20110;-79
2023/01/21 07:20:39;;;;;;;43.85;22.80;;;0.40;99.90;;;;;;5012375;28;20128;-78
2023/01/21 07:23:05;;;;;;;47.30;24.67;;;0.40;99.90;;;;;;4992201;28;20127;-78
2023/01/21 07:25:31;;;;;;;44.67;23.17;;;0.40;99.90;;;;;;5010419;28;20461;-78
2023/01/21 07:27:57;;;;;;;46.95;25.00;;;0.40;99.90;;;;;;5010482;28;20546;-78
2023/01/21 07:30:22;;;;;;;48.22;24.70;;;0.40;99.90;;;;;;5006962;28;20035;-79
2023/01/21 07:32:48;;;;;;;49.78;25.08;;;0.40;99.90;;;;;;4994132;28;20605;-79
2023/01/21 07:35:14;;;;;;;48.05;25.70;;;0.40;99.90;;;;;;5010691;28;20504;-79
2023/01/21 07:37:39;;;;;;;50.90;26.50;;;0.30;99.90;;;;;;5008779;28;20042;-79
2023/01/21 07:40:06;;;;;;;52.15;25.67;;;0.30;99.90;;;;;;5006655;28;20034;-79
2023/01/21 07:42:31;;;;;;;49.88;24.95;;;0.30;99.90;;;;;;5006587;28;20042;-79
2023/01/21 07:44:58;;;;;;;53.97;25.98;;;0.30;99.90;;;;;;5008410;28;20034;-79
2023/01/21 07:47:24;;;;;;;45.17;22.92;;;0.30;99.90;;;;;;5007964;28;20049;-79
2023/01/21 07:49:50;;;;;;;50.83;25.77;;;0.30;99.90;;;;;;4980653;28;20061;-78
2023/01/21 07:52:15;;;;;;;55.08;25.30;;;0.30;99.90;;;;;;5000032;28;20045;-77
2023/01/21 07:54:41;;;;;;;49.97;26.00;;;0.30;99.90;;;;;;4983214;28;20041;-77
2023/01/21 07:57:07;;;;;;;54.38;26.42;;;0.40;99.90;;;;;;4982311;28;20092;-78
2023/01/21 07:59:32;;;;;;;50.45;25.83;;;0.40;99.90;;;;;;4999998;28;20042;-78
2023/01/21 08:01:58;;;;;;;48.95;25.73;;;0.40;99.90;;;;;;5000228;28;20061;-77
2023/01/21 08:04:24;;;;;;;54.90;26.70;;;;;;;;;;5001914;28;20038;-78
2023/01/21 08:06:55;;;;;;;54.70;26.02;;;0.40;99.90;;;;;;5002160;28;20057;-77
2023/01/21 08:09:24;;;;;;;53.15;27.20;;;0.40;99.90;;;;;;5000629;28;20077;-78
2023/01/21 08:11:50;;;;;;;52.58;27.05;;;0.50;99.90;;;;;;5003308;28;20066;-78
2023/01/21 08:14:16;;;;;;;54.13;26.83;;;0.50;99.90;;;;;;5006989;28;20060;-78
2023/01/21 08:16:41;;;;;;;52.10;26.63;;;0.50;99.90;;;;;;5011907;28;20037;-78
2023/01/21 08:19:07;;;;;;;54.78;26.98;;;0.50;99.90;;;;;;5010712;28;20052;-79
2023/01/21 08:21:33;;;;;;;47.05;23.42;;;0.50;99.90;;;;;;5008453;28;20116;-79
2023/01/21 08:23:59;;;;;;;53.03;27.98;;;0.50;99.90;;;;;;5008548;28;20034;-79
2023/01/21 08:26:24;;;;;;;54.97;29.17;;;0.50;99.90;;;;;;4992358;28;20057;-79
2023/01/21 08:28:53;;;;;;;53.40;28.35;;;0.50;99.90;;;;;;5011415;28;20054;-79
2023/01/21 08:31:19;;;;;;;52.45;27.33;;;0.50;99.90;;;;;;5010459;28;20054;-78
2023/01/21 08:33:45;;;;;;;50.28;25.60;;;0.60;99.90;;;;;;4987423;28;20424;-78
2023/01/21 08:36:10;;;;;;;51.20;26.45;;;0.60;99.90;;;;;;5006030;28;20060;-78
2023/01/21 08:38:36;;;;;;;51.50;26.05;;;0.60;99.90;;;;;;5008945;28;20054;-79
2023/01/21 08:41:02;;;;;;;54.03;25.20;;;0.60;99.90;;;;;;4975551;28;20153;-79
2023/01/21 08:43:28;;;;;;;47.58;24.27;;;0.60;99.90;;;;;;5006641;28;20108;-78
2023/01/21 08:45:55;;;;;;;43.55;22.58;;;0.60;99.90;;;;;;5005647;28;20831;-79
2023/01/21 08:48:21;;;;;;;46.38;25.23;;;0.60;99.90;;;;;;5007133;28;20050;-78
2023/01/21 08:50:47;;;;;;;48.10;24.50;;;0.60;99.90;;;;;;5004729;28;20038;-78
2023/01/21 08:53:13;;;;;;;44.35;22.38;;;0.60;99.90;;;;;;5002820;28;20089;-78
2023/01/21 08:55:38;;;;;;;45.88;24.10;;;0.50;99.90;;;;;;4985759;28;20121;-78
2023/01/21 08:58:04;;;;;;;43.08;23.67;;;0.50;99.90;;;;;;4970723;28;20041;-78
2023/01/21 09:00:29;;;;;;;40.53;21.92;;;0.50;99.90;;;;;;5002942;28;20050;-78
2023/01/21 09:02:57;;;;;;;46.35;23.58;;;0.50;99.90;;;;;;4986872;28;20853;-78
2023/01/21 09:05:22;;;;;;;41.75;22.17;;;0.50;99.90;;;;;;4989668;28;20042;-80
2023/01/21 09:07:48;;;;;;;42.72;22.55;;;0.60;99.90;;;;;;4998048;28;20069;-81
2023/01/21 09:10:59;;;;;;;36.50;20.52;;;0.50;99.90;;;;;;5025963;28;20076;-80
2023/01/21 09:13:04;;;;;;;45.92;23.95;;;0.60;99.90;;;;;;5009669;28;20112;-76
2023/01/21 09:15:30;;;;;;;44.63;24.80;;;0.60;99.90;;;;;;5005883;28;20038;-74
2023/01/21 09:17:55;;;;;;;45.33;23.27;;;0.60;99.90;;;;;;5004104;28;20496;-74
2023/01/21 09:20:21;;;;;;;45.45;23.70;;;0.60;99.90;;;;;;5002525;28;20604;-76
2023/01/21 09:22:46;;;;;;;48.97;23.63;;;0.70;99.90;;;;;;5005439;28;20069;-76
2023/01/21 09:25:12;;;;;;;47.60;23.55;;;0.70;99.90;;;;;;5004819;28;20507;-76
2023/01/21 09:27:37;;;;;;;43.55;22.67;;;0.70;99.90;;;;;;4988954;28;20064;-80
2023/01/21 09:30:03;;;;;;;44.75;23.17;;;0.70;99.90;;;;;;5007817;28;20037;-76
2023/01/21 09:32:29;;;;;;;43.55;24.05;;;0.70;99.90;;;;;;4970767;28;20080;-77
2023/01/21 09:34:55;;;;;;;44.22;23.70;;;0.80;99.90;;;;;;5004186;28;20092;-74
2023/01/21 09:37:20;;;;;;;40.85;21.08;;;0.70;99.90;;;;;;5006921;28;20379;-77
2023/01/21 09:39:46;;;;;;;32.67;18.27;;;0.80;99.90;;;;;;5008902;28;20041;-78
2023/01/21 09:42:21;;;;;;;45.83;24.58;;;0.70;99.90;;;;;;5005801;28;20179;-77
2023/01/21 09:44:51;;;;;;;46.72;22.42;;;0.80;99.90;;;;;;5003414;28;20046;-77
2023/01/21 09:47:23;;;;;;;43.42;23.05;;;0.80;99.90;;;;;;4987963;28;20041;-76
2023/01/21 09:49:53;;;;;;;40.70;22.20;;;0.80;99.90;;;;;;5009105;28;20132;-77
2023/01/21 09:52:21;;;;;;;41.17;22.60;;;0.80;99.90;;;;;;5007388;28;20084;-76
2023/01/21 09:54:47;;;;;;;43.60;23.63;;;0.90;99.90;;;;;;5003577;28;20041;-76
2023/01/21 09:57:32;;;;;;;42.35;23.40;;;0.90;99.90;;;;;;4981279;28;20045;-76
2023/01/21 10:00:24;;;;;;;41.03;23.92;;;0.90;99.90;;;;;;5006780;28;20496;-77
2023/01/21 10:03:12;;;;;;;42.90;22.05;;;0.90;99.90;;;;;;5000479;28;20034;-77
2023/01/21 10:06:02;;;;;;;41.42;23.30;;;0.90;99.90;;;;;;4984532;28;20050;-76
2023/01/21 10:08:37;;;;;;;44.20;22.88;;;1.00;99.90;;;;;;4989324;28;20101;-76
2023/01/21 10:11:25;;;;;;;41.00;23.27;;;1.00;99.90;;;;;;5006226;28;20081;-77
2023/01/21 10:14:02;;;;;;;44.97;22.60;;;1.00;99.90;;;;;;4990776;28;20038;-77
2023/01/21 10:16:51;;;;;;;42.38;22.77;;;1.10;99.90;;;;;;5009962;28;20444;-77
2023/01/21 10:19:21;;;;;;;42.13;23.98;;;1.10;99.90;;;;;;5001092;28;20492;-77
2023/01/21 10:21:56;;;;;;;42.95;22.35;;;;;;;;;;4984565;28;20432;-77
2023/01/21 10:24:39;;;;;;;40.05;22.35;;;1.10;99.90;;;;;;4986386;28;20054;-77
2023/01/21 10:27:09;;;;;;;43.42;22.23;;;1.20;99.90;;;;;;4968652;28;20378;-77
2023/01/21 10:29:40;;;;;;;39.58;21.48;;;1.20;99.90;;;;;;5005129;28;20049;-77
2023/01/21 10:32:12;;;;;;;42.30;23.58;;;1.20;99.90;;;;;;5004518;28;20053;-77
2023/01/21 10:34:43;;;;;;;38.10;23.17;;;1.30;99.90;;;;;;4999976;28;20054;-77
2023/01/21 10:37:30;;;;;;;40.95;23.13;;;1.40;99.90;;;;;;5002642;28;20046;-77
2023/01/21 10:40:10;;;;;;;40.97;22.75;;;1.40;99.90;;;;;;4966625;28;20403;-77
2023/01/21 10:42:50;;;;;;;40.17;24.90;;;1.50;99.90;;;;;;4984797;28;20046;-77
2023/01/21 10:45:44;;;;;;;41.88;24.05;;;1.50;99.90;;;;;;4980801;28;20136;-77
2023/01/21 10:48:17;;;;;;;37.60;22.42;;;;;;;;;;5001234;28;20046;-77
2023/01/21 10:50:55;;;;;;;38.35;22.48;;;1.70;99.90;;;;;;4986908;28;20053;-77
2023/01/21 10:53:39;;;;;;;42.72;23.90;;;1.70;99.90;;;;;;4986502;28;20045;-77
2023/01/21 10:56:09;;;;;;;44.00;24.35;;;1.70;99.90;;;;;;5005167;28;20463;-77
2023/01/21 10:58:43;;;;;;;40.17;23.35;;;1.70;99.90;;;;;;5006109;28;20077;-77
2023/01/21 11:01:34;;;;;;;40.20;23.52;;;1.70;99.90;;;;;;5006845;28;20046;-77
2023/01/21 11:04:20;;;;;;;37.10;23.15;;;1.70;99.90;;;;;;4985650;28;20117;-77
2023/01/21 11:07:00;;;;;;;39.17;23.55;;;1.70;99.90;;;;;;4990696;28;20046;-77
2023/01/21 11:09:30;;;;;;;38.25;22.67;;;1.70;99.90;;;;;;5010309;28;20141;-77
2023/01/21 11:11:55;;;;;;;37.78;23.02;;;1.70;99.90;;;;;;5010655;28;20378;-79
2023/01/21 11:14:24;;;;;;;40.90;23.25;;;;;;;;;;5008900;28;20072;-77
2023/01/21 11:16:50;;;;;;;40.17;22.80;;;1.80;99.90;;;;;;5005937;28;20103;-77
2023/01/21 11:19:29;;;;;;;39.20;22.77;;;1.90;99.90;;;;;;5004782;28;20041;-77
2023/01/21 11:22:05;;;;;;;40.75;22.73;;;1.90;99.90;;;;;;5006645;28;20034;-77
2023/01/21 11:24:42;;;;;;;38.97;23.55;;;1.90;99.90;;;;;;4991016;28;20432;-77
2023/01/21 11:27:21;;;;;;;43.67;25.13;;;2.00;99.90;;;;;;5009101;28;20101;-77
2023/01/21 11:29:48;;;;;;;38.92;24.42;;;2.00;99.90;;;;;;5009426;28;20381;-76
2023/01/21 11:32:22;;;;;;;40.30;23.00;;;2.10;99.90;;;;;;5010095;28;20129;-76
2023/01/21 11:35:09;;;;;;;36.03;21.73;;;2.20;99.90;;;;;;5008636;28;20477;-76
2023/01/21 11:37:36;;;;;;;35.38;22.60;;;2.30;99.90;;;;;;5009778;28;20049;-76
2023/01/21 11:40:20;;;;;;;34.67;21.17;;;2.40;99.90;;;;;;5008669;28;20489;-76
2023/01/21 11:42:51;;;;;;;35.42;21.38;;;2.40;99.90;;;;;;4996518;28;20085;-76
2023/01/21 11:45:27;;;;;;;33.92;19.48;;;2.40;99.90;;;;;;4993761;28;20041;-76
2023/01/21 11:47:53;;;;;;;34.47;22.20;;;2.40;99.90;;;;;;4976049;28;20041;-77
2023/01/21 11:50:33;;;;;;;36.45;22.33;;;2.40;99.90;;;;;;5010112;28;20515;-77
2023/01/21 11:53:16;;;;;;;37.55;23.35;;;2.40;99.90;;;;;;5007951;28;20476;-77
2023/01/21 11:55:49;;;;;;;38.47;21.75;;;2.40;99.90;;;;;;5006927;28;20042;-77
2023/01/21 11:58:21;;;;;;;33.70;19.08;;;2.40;99.90;;;;;;5004017;28;20082;-77
2023/01/21 12:00:49;;;;;;;32.90;20.45;;;2.30;99.90;;;;;;4986968;28;20627;-77
2023/01/21 12:03:17;;;;;;;34.30;22.27;;;2.30;99.90;;;;;;5005017;28;20038;-76
2023/01/21 12:05:48;;;;;;;37.50;23.20;;;2.30;99.90;;;;;;5007236;28;20034;-76
2023/01/21 12:08:20;;;;;;;36.72;23.95;;;2.30;99.90;;;;;;5004775;28;20074;-76
2023/01/21 12:10:46;;;;;;;37.70;22.65;;;2.40;99.90;;;;;;5008767;28;20083;-76
2023/01/21 12:13:23;;;;;;;34.40;21.77;;;2.40;99.90;;;;;;5010075;28;20046;-76
2023/01/21 12:16:14;;;;;;;35.08;22.67;;;2.40;99.90;;;;;;4983360;28;20076;-77
2023/01/21 12:19:01;;;;;;;41.78;24.73;;;;;;;;;;4986876;28;20053;-77
2023/01/21 12:21:45;;;;;;;33.72;21.48;;;2.90;99.90;;;;;;4987168;28;20053;-77
2023/01/21 12:24:29;;;;;;;35.70;21.08;;;3.00;99.90;;;;;;5000797;28;20049;-77
2023/01/21 12:27:22;;;;;;;31.95;21.85;;;3.00;99.90;;;;;;5006738;28;20062;-76
2023/01/21 12:30:06;;;;;;;36.45;23.55;;;3.00;99.90;;;;;;4986619;28;20547;-75
2023/01/21 12:32:55;;;;;;;37.67;23.88;;;3.00;99.90;;;;;;5004531;28;20060;-76
2023/01/21 12:35:41;;;;;;;37.10;24.73;;;3.10;99.90;;;;;;5005924;28;20100;-76
2023/01/21 12:38:15;;;;;;;36.22;24.23;;;3.20;99.90;;;;;;5005503;28;20420;-76
2023/01/21 12:41:13;;;;;;;33.08;23.10;;;3.30;99.90;;;;;;5006800;28;20096;-77
2023/01/21 12:43:53;;;;;;;36.25;22.17;;;3.30;99.90;;;;;;5006500;28;20073;-77
2023/01/21 12:46:33;;;;;;;34.80;22.77;;;3.40;99.90;;;;;;5008337;28;20049;-78
2023/01/21 12:49:18;;;;;;;35.47;23.85;;;3.40;99.90;;;;;;5006467;28;20116;-76
2023/01/21 12:51:56;;;;;;;35.38;23.27;;;3.50;99.90;;;;;;4985615;28;20065;-77
2023/01/21 12:54:47;;;;;;;31.85;21.20;;;3.50;99.90;;;;;;5003441;28;20042;-76
2023/01/21 12:57:27;;;;;;;28.38;20.20;;;3.50;99.90;;;;;;5004856;28;20041;-76